Time;durP1;ratioP1;P1;durP2;ratioP2;P2;SDS_P1;SDS_P2;PMS_P1;PMS_P2;Temp;Humidity;BMP_temperature;BMP_pressure;BME280_temperature;BME280_humidity;BME280_pressure;Samples;Min_cycle;Max_cycle;Signal;HPM_P1;HPM_P2
2022/02/26 00:01:52;;;;;;;17.08;2.67;;;7.50;90.90;;;;;;5092568;28;20040;-68
2022/02/26 00:04:18;;;;;;;22.90;3.30;;;7.50;90.80;;;;;;5091985;28;20063;-68
2022/02/26 00:06:44;;;;;;;23.77;2.85;;;7.50;90.80;;;;;;5091775;28;20405;-68
2022/02/26 00:09:09;;;;;;;19.88;3.25;;;7.50;90.80;;;;;;5091154;28;20075;-68
2022/02/26 00:11:38;;;;;;;20.30;3.90;;;7.50;90.90;;;;;;5092420;28;20458;-68
2022/02/26 00:14:04;;;;;;;23.58;2.38;;;7.50;90.90;;;;;;5091880;28;20083;-68
2022/02/26 00:16:32;;;;;;;32.65;3.30;;;7.50;90.90;;;;;;5092532;28;20054;-68
2022/02/26 00:18:58;;;;;;;24.98;2.83;;;7.50;90.90;;;;;;5087333;28;20043;-68
2022/02/26 00:21:24;;;;;;;26.35;3.85;;;7.50;90.90;;;;;;5082335;28;20085;-68
2022/02/26 00:23:49;;;;;;;23.40;2.70;;;7.50;90.90;;;;;;5091418;28;20028;-68
2022/02/26 00:26:19;;;;;;;13.63;2.33;;;7.50;90.90;;;;;;5091490;28;20039;-68
2022/02/26 00:28:45;;;;;;;25.92;3.25;;;7.40;90.90;;;;;;5092177;28;20058;-68
2022/02/26 00:31:11;;;;;;;13.65;1.85;;;7.50;91.00;;;;;;5092329;28;20056;-68
2022/02/26 00:33:37;;;;;;;15.50;2.58;;;7.40;91.00;;;;;;5077853;28;20533;-68
2022/02/26 00:36:02;;;;;;;17.85;2.45;;;7.40;91.10;;;;;;5092195;28;20028;-68
2022/02/26 00:38:28;;;;;;;11.45;2.28;;;7.40;91.10;;;;;;5091660;28;20494;-68
2022/02/26 00:40:54;;;;;;;15.00;2.08;;;7.40;91.30;;;;;;5091678;28;20028;-68
2022/02/26 00:43:21;;;;;;;15.25;2.40;;;7.30;91.20;;;;;;5090373;28;20024;-68
2022/02/26 00:45:47;;;;;;;11.02;1.77;;;7.40;91.20;;;;;;5092014;28;20032;-68
2022/02/26 00:48:13;;;;;;;8.43;1.75;;;7.40;91.40;;;;;;5091564;28;20143;-68
2022/02/26 00:50:38;;;;;;;15.43;2.30;;;7.40;91.40;;;;;;5078417;28;20024;-68
2022/02/26 00:53:05;;;;;;;19.48;2.42;;;7.40;91.40;;;;;;5091780;28;20065;-68
2022/02/26 00:55:30;;;;;;;16.27;2.55;;;7.30;91.60;;;;;;5091457;28;20036;-68
2022/02/26 00:57:57;;;;;;;15.18;2.33;;;7.30;91.70;;;;;;5091242;28;20024;-68
2022/02/26 01:00:23;;;;;;;12.45;2.03;;;7.30;91.80;;;;;;5076892;28;20062;-68
2022/02/26 01:02:48;;;;;;;17.00;2.05;;;7.30;92.10;;;;;;5087724;28;20039;-68
2022/02/26 01:05:14;;;;;;;12.65;2.60;;;7.20;92.30;;;;;;5083138;28;20047;-68
2022/02/26 01:07:40;;;;;;;7.95;1.35;;;7.20;92.40;;;;;;5095156;28;20528;-68
2022/02/26 01:10:07;;;;;;;10.73;1.42;;;7.20;92.60;;;;;;5094983;28;20028;-68
2022/02/26 01:12:33;;;;;;;13.40;2.30;;;7.10;92.70;;;;;;5095368;28;20135;-68
2022/02/26 01:14:59;;;;;;;13.70;2.00;;;7.10;92.80;;;;;;5094954;28;20107;-68
2022/02/26 01:17:25;;;;;;;13.38;1.83;;;7.10;92.80;;;;;;5092764;28;20388;-68
2022/02/26 01:19:51;;;;;;;14.70;2.88;;;7.10;92.80;;;;;;5084625;28;20040;-68
2022/02/26 01:22:17;;;;;;;12.73;2.28;;;7.10;92.80;;;;;;5093696;28;20078;-68
2022/02/26 01:24:43;;;;;;;17.83;2.72;;;7.10;92.80;;;;;;5095627;28;20032;-68
2022/02/26 01:27:09;;;;;;;16.92;2.40;;;7.10;92.90;;;;;;5081480;28;20368;-68
2022/02/26 01:29:35;;;;;;;18.42;2.63;;;7.00;92.90;;;;;;5084351;28;20154;-68
2022/02/26 01:32:01;;;;;;;12.90;2.67;;;7.10;92.90;;;;;;5092156;28;20062;-68
2022/02/26 01:34:27;;;;;;;6.97;2.42;;;7.10;92.80;;;;;;5094967;28;20084;-68
2022/02/26 01:36:52;;;;;;;11.25;1.90;;;7.00;92.80;;;;;;5090107;28;20084;-68
2022/02/26 01:39:24;;;;;;;7.50;1.20;;;7.00;92.90;;;;;;5086124;28;20027;-68
2022/02/26 01:41:52;;;;;;;7.35;1.92;;;7.00;93.00;;;;;;5095002;28;20055;-68
2022/02/26 01:44:18;;;;;;;8.82;2.83;;;6.90;93.10;;;;;;5085918;28;20361;-68
2022/02/26 01:46:43;;;;;;;11.23;2.03;;;6.90;93.20;;;;;;5074846;28;20031;-69
2022/02/26 01:49:09;;;;;;;11.13;2.13;;;6.90;93.20;;;;;;5087346;28;20029;-68
2022/02/26 01:51:35;;;;;;;12.57;1.90;;;6.90;93.20;;;;;;5088095;28;20032;-68
2022/02/26 01:54:01;;;;;;;12.60;1.65;;;6.90;93.20;;;;;;5094943;28;20044;-68
2022/02/26 01:56:26;;;;;;;19.48;2.38;;;6.80;93.10;;;;;;5099631;28;20023;-68
2022/02/26 01:58:52;;;;;;;8.70;2.22;;;6.80;93.10;;;;;;5092486;28;20028;-68
2022/02/26 02:01:18;;;;;;;20.10;2.10;;;6.80;93.10;;;;;;5074528;28;20074;-68
2022/02/26 02:03:44;;;;;;;17.90;2.63;;;6.80;93.10;;;;;;5083613;28;20487;-68
2022/02/26 02:06:12;;;;;;;17.55;3.10;;;6.80;93.10;;;;;;5100198;28;20426;-68
2022/02/26 02:08:37;;;;;;;16.77;1.63;;;6.80;93.00;;;;;;5094456;28;20040;-68
2022/02/26 02:11:03;;;;;;;9.20;1.92;;;6.80;93.00;;;;;;5094109;28;20101;-68
2022/02/26 02:13:30;;;;;;;5.63;1.83;;;6.80;93.10;;;;;;5086219;28;20044;-68
2022/02/26 02:15:55;;;;;;;6.32;1.63;;;6.70;93.10;;;;;;5075462;28;20024;-69
2022/02/26 02:18:21;;;;;;;12.68;2.60;;;6.70;93.10;;;;;;5093809;28;20077;-69
2022/02/26 02:20:47;;;;;;;13.70;1.70;;;6.70;93.10;;;;;;5094266;28;20032;-68
2022/02/26 02:23:13;;;;;;;18.20;1.70;;;6.70;93.10;;;;;;5094178;28;20123;-68
2022/02/26 02:25:39;;;;;;;13.88;1.70;;;6.60;93.10;;;;;;5092331;28;20028;-68
2022/02/26 02:28:07;;;;;;;6.70;1.40;;;6.60;93.20;;;;;;5084883;28;20024;-68
2022/02/26 02:30:33;;;;;;;4.25;1.15;;;6.60;93.20;;;;;;5099536;28;20016;-68
2022/02/26 02:32:59;;;;;;;9.43;1.60;;;6.60;93.30;;;;;;5093469;28;20052;-68
2022/02/26 02:35:33;;;;;;;16.50;3.10;;;6.50;93.40;;;;;;5093708;28;20455;-68
2022/02/26 02:38:02;;;;;;;15.88;3.08;;;6.50;93.40;;;;;;5094057;28;20178;-68
2022/02/26 02:40:28;;;;;;;14.52;2.30;;;6.50;93.40;;;;;;5079550;28;20126;-68
2022/02/26 02:42:55;;;;;;;14.30;2.40;;;6.50;93.30;;;;;;5087830;28;20043;-69
2022/02/26 02:45:21;;;;;;;7.40;2.00;;;6.40;93.30;;;;;;5079980;28;20032;-68
2022/02/26 02:47:48;;;;;;;6.53;1.42;;;6.40;93.40;;;;;;5083553;28;20032;-68
2022/02/26 02:50:15;;;;;;;14.40;2.22;;;6.40;93.40;;;;;;5089559;28;20039;-69
2022/02/26 02:52:42;;;;;;;13.35;2.13;;;6.30;93.40;;;;;;5088871;28;20093;-68
2022/02/26 02:55:08;;;;;;;14.35;2.22;;;6.40;93.40;;;;;;5089547;28;20107;-69
2022/02/26 02:57:34;;;;;;;11.73;1.50;;;6.30;93.40;;;;;;5086612;28;20031;-68
2022/02/26 03:00:01;;;;;;;14.93;1.80;;;6.30;93.40;;;;;;5088793;28;20020;-68
2022/02/26 03:02:27;;;;;;;19.70;2.35;;;6.20;93.40;;;;;;5092553;28;20036;-68
2022/02/26 03:04:52;;;;;;;18.67;2.67;;;6.30;93.40;;;;;;5096352;28;20055;-68
2022/02/26 03:07:18;;;;;;;12.88;2.38;;;6.30;93.40;;;;;;5092698;28;20028;-68
2022/02/26 03:09:44;;;;;;;2.75;0.98;;;6.20;93.30;;;;;;5089909;28;20051;-68
2022/02/26 03:12:09;;;;;;;10.90;2.03;;;6.20;93.40;;;;;;5092367;28;20020;-68
2022/02/26 03:14:35;;;;;;;19.08;2.42;;;6.20;93.50;;;;;;5091555;28;20459;-69
2022/02/26 03:17:01;;;;;;;14.52;2.10;;;6.10;93.50;;;;;;5092037;28;20069;-69
2022/02/26 03:19:26;;;;;;;7.72;1.95;;;6.10;93.50;;;;;;5092387;28;20059;-69
2022/02/26 03:21:52;;;;;;;12.40;1.95;;;6.10;93.50;;;;;;5091194;28;20051;-69
2022/02/26 03:24:17;;;;;;;8.90;1.83;;;6.10;93.50;;;;;;5092083;28;20032;-69
2022/02/26 03:26:43;;;;;;;13.15;1.75;;;6.10;93.50;;;;;;5090321;28;20024;-69
2022/02/26 03:29:10;;;;;;;8.25;1.73;;;6.10;93.50;;;;;;5091632;28;20024;-69
2022/02/26 03:31:36;;;;;;;15.25;1.92;;;6.00;93.50;;;;;;5091990;28;20467;-69
2022/02/26 03:34:02;;;;;;;10.13;1.88;;;6.00;93.50;;;;;;5092101;28;20432;-69
2022/02/26 03:36:33;;;;;;;11.73;1.88;;;6.00;93.50;;;;;;5091258;28;20536;-69
2022/02/26 03:39:01;;;;;;;12.55;1.55;;;6.00;93.60;;;;;;5091978;28;20020;-69
2022/02/26 03:41:27;;;;;;;5.32;1.63;;;6.00;93.60;;;;;;5090845;28;20506;-69
2022/02/26 03:43:53;;;;;;;13.98;1.58;;;6.00;93.60;;;;;;5091562;28;20095;-69
2022/02/26 03:46:19;;;;;;;17.42;2.42;;;5.90;93.60;;;;;;5091806;28;20048;-69
2022/02/26 03:48:45;;;;;;;5.20;1.98;;;5.90;93.70;;;;;;5091761;28;20038;-69
2022/02/26 03:51:12;;;;;;;21.52;2.50;;;5.80;93.70;;;;;;5091113;28;20028;-69
2022/02/26 03:53:38;;;;;;;17.00;2.50;;;5.80;93.70;;;;;;5091581;28;20036;-69
2022/02/26 03:56:04;;;;;;;13.07;1.92;;;5.80;93.70;;;;;;5091489;28;20449;-69
2022/02/26 03:58:30;;;;;;;14.57;1.88;;;5.80;93.70;;;;;;5092144;28;20031;-69
2022/02/26 04:00:59;;;;;;;11.30;1.95;;;5.80;93.70;;;;;;5091122;28;20028;-69
2022/02/26 04:03:25;;;;;;;4.93;1.08;;;5.80;93.70;;;;;;5094312;28;20059;-69
2022/02/26 04:05:53;;;;;;;0.50;0.50;;;5.80;93.70;;;;;;5094395;28;20028;-69
2022/02/26 04:08:19;;;;;;;1.15;0.65;;;5.70;93.80;;;;;;5092487;28;20048;-69
2022/02/26 04:10:45;;;;;;;0.80;0.80;;;5.70;93.70;;;;;;5092255;28;20042;-66
2022/02/26 04:13:10;;;;;;;17.45;1.33;;;5.60;93.70;;;;;;5092053;28;20032;-67
2022/02/26 04:15:36;;;;;;;13.00;1.35;;;5.50;93.60;;;;;;5092336;28;20028;-66
2022/02/26 04:18:03;;;;;;;2.72;1.08;;;5.50;93.70;;;;;;5091112;28;20478;-66
2022/02/26 04:20:34;;;;;;;10.27;1.30;;;5.50;93.80;;;;;;5092324;28;20110;-67
2022/02/26 04:23:00;;;;;;;8.40;1.52;;;5.40;93.80;;;;;;5092005;28;20039;-67
2022/02/26 04:25:26;;;;;;;9.63;1.85;;;5.40;93.90;;;;;;5078737;28;20052;-66
2022/02/26 04:27:52;;;;;;;7.97;2.00;;;5.40;93.90;;;;;;5091665;28;20504;-66
2022/02/26 04:30:18;;;;;;;17.98;2.13;;;5.40;93.90;;;;;;5079601;28;20024;-66
2022/02/26 04:32:44;;;;;;;7.78;1.02;;;5.40;93.90;;;;;;5091492;28;20028;-66
2022/02/26 04:35:10;;;;;;;9.77;1.80;;;5.40;94.00;;;;;;5088430;28;20032;-66
2022/02/26 04:37:36;;;;;;;10.82;2.03;;;5.30;93.90;;;;;;5089004;28;20076;-66
2022/02/26 04:40:02;;;;;;;15.30;2.22;;;5.30;93.90;;;;;;5083892;28;20040;-66
2022/02/26 04:42:28;;;;;;;17.08;2.63;;;5.30;93.90;;;;;;5080357;28;20473;-66
2022/02/26 04:44:53;;;;;;;6.95;1.60;;;5.40;93.90;;;;;;5084748;28;20030;-66
2022/02/26 04:47:19;;;;;;;5.85;2.40;;;5.40;93.90;;;;;;5094160;28;20483;-66
2022/02/26 04:49:45;;;;;;;18.00;2.30;;;5.40;93.90;;;;;;5096192;28;20038;-66
2022/02/26 04:52:11;;;;;;;11.85;2.03;;;5.40;93.80;;;;;;5095383;28;20035;-66
2022/02/26 04:54:37;;;;;;;15.05;2.35;;;5.40;93.80;;;;;;5085633;28;20490;-66
2022/02/26 04:57:03;;;;;;;19.50;1.65;;;5.40;93.80;;;;;;5092275;28;20043;-66
2022/02/26 04:59:29;;;;;;;9.27;0.88;;;5.40;93.80;;;;;;5095376;28;20035;-66
2022/02/26 05:01:54;;;;;;;7.22;1.65;;;5.40;93.80;;;;;;5095317;28;20032;-66
2022/02/26 05:04:20;;;;;;;8.35;2.00;;;5.30;93.80;;;;;;5100114;28;20041;-66
2022/02/26 05:06:48;;;;;;;12.68;1.63;;;5.30;93.80;;;;;;5095746;28;20031;-67
2022/02/26 05:09:13;;;;;;;12.13;1.88;;;5.30;93.80;;;;;;5082878;28;20035;-66
2022/02/26 05:11:39;;;;;;;13.02;2.13;;;5.30;93.80;;;;;;5095817;28;20031;-66
2022/02/26 05:14:05;;;;;;;16.13;2.47;;;5.30;93.70;;;;;;5089268;28;20053;-67
2022/02/26 05:16:30;;;;;;;9.70;1.35;;;5.30;93.80;;;;;;5087725;28;20109;-67
2022/02/26 05:18:56;;;;;;;10.43;2.10;;;5.30;93.80;;;;;;5095193;28;20024;-67
2022/02/26 05:21:21;;;;;;;13.25;2.03;;;5.30;93.70;;;;;;5094569;28;20024;-68
2022/02/26 05:23:50;;;;;;;5.60;1.63;;;5.30;93.70;;;;;;5095128;28;20418;-67
2022/02/26 05:26:15;;;;;;;22.55;2.35;;;5.40;93.70;;;;;;5095147;28;20111;-67
2022/02/26 05:28:41;;;;;;;11.55;2.00;;;5.30;93.60;;;;;;5094728;28;20131;-67
2022/02/26 05:31:07;;;;;;;10.55;1.95;;;5.40;93.60;;;;;;5094884;28;20022;-67
2022/02/26 05:33:35;;;;;;;16.60;1.92;;;5.30;93.50;;;;;;5095090;28;20075;-67
2022/02/26 05:36:02;;;;;;;20.60;2.30;;;5.30;93.50;;;;;;5094110;28;20467;-67
2022/02/26 05:38:28;;;;;;;10.90;1.83;;;5.30;93.50;;;;;;5095228;28;20034;-67
2022/02/26 05:40:53;;;;;;;10.68;1.95;;;5.30;93.50;;;;;;5095223;28;20032;-67
2022/02/26 05:43:19;;;;;;;8.23;2.70;;;5.20;93.50;;;;;;5085344;28;20056;-67
2022/02/26 05:45:45;;;;;;;19.67;2.75;;;5.30;93.50;;;;;;5089297;28;20044;-67
2022/02/26 05:48:11;;;;;;;13.60;2.38;;;5.30;93.50;;;;;;5094832;28;20104;-67
2022/02/26 05:50:37;;;;;;;11.18;1.58;;;5.30;93.50;;;;;;5090483;28;20464;-67
2022/02/26 05:53:05;;;;;;;20.15;2.50;;;5.30;93.40;;;;;;5074336;28;20025;-67
2022/02/26 05:55:31;;;;;;;12.45;2.35;;;5.30;93.40;;;;;;5087162;28;20028;-67
2022/02/26 05:57:58;;;;;;;10.45;2.13;;;5.20;93.40;;;;;;5084628;28;20558;-68
2022/02/26 06:00:24;;;;;;;22.23;2.65;;;5.30;93.40;;;;;;5087135;28;20107;-68
2022/02/26 06:02:50;;;;;;;16.08;2.55;;;5.30;93.40;;;;;;5094204;28;20376;-67
2022/02/26 06:05:15;;;;;;;13.13;2.90;;;5.30;93.30;;;;;;5094311;28;20073;-68
2022/02/26 06:07:41;;;;;;;9.30;1.65;;;5.30;93.30;;;;;;5080673;28;20063;-68
2022/02/26 06:10:07;;;;;;;10.93;2.00;;;5.30;93.50;;;;;;5081702;28;20117;-68
2022/02/26 06:12:33;;;;;;;22.02;2.47;;;5.30;93.10;;;;;;5086927;28;20154;-68
2022/02/26 06:14:58;;;;;;;19.83;2.40;;;5.30;93.10;;;;;;5087664;28;20079;-68
2022/02/26 06:17:24;;;;;;;12.60;3.42;;;5.30;93.00;;;;;;5079607;28;20110;-68
2022/02/26 06:19:50;;;;;;;8.10;1.80;;;5.30;93.00;;;;;;5080547;28;20029;-68
2022/02/26 06:22:15;;;;;;;9.20;2.08;;;5.40;93.00;;;;;;5093979;28;20085;-68
2022/02/26 06:24:42;;;;;;;17.65;2.67;;;5.30;92.90;;;;;;5079992;28;20036;-68
2022/02/26 06:27:07;;;;;;;10.35;2.00;;;5.30;92.90;;;;;;5093971;28;20491;-71
2022/02/26 06:29:34;;;;;;;15.82;2.33;;;5.30;92.90;;;;;;5094011;28;20036;-71
2022/02/26 06:31:59;;;;;;;12.35;2.58;;;5.30;92.90;;;;;;5092346;28;20032;-68
2022/02/26 06:34:27;;;;;;;15.60;2.00;;;5.30;92.80;;;;;;5078438;28;20049;-68
2022/02/26 06:36:52;;;;;;;7.10;2.13;;;5.30;92.80;;;;;;5082615;28;20024;-68
2022/02/26 06:39:18;;;;;;;11.95;2.10;;;5.30;92.70;;;;;;5089977;28;20500;-68
2022/02/26 06:41:44;;;;;;;18.27;2.30;;;5.30;92.70;;;;;;5082975;28;20039;-68
2022/02/26 06:44:10;;;;;;;14.82;2.60;;;5.30;92.60;;;;;;5093572;28;20043;-69
2022/02/26 06:46:37;;;;;;;10.55;1.92;;;5.30;92.60;;;;;;5091483;28;20048;-68
2022/02/26 06:49:04;;;;;;;14.98;2.85;;;5.30;92.60;;;;;;5093559;28;20082;-68
2022/02/26 06:51:31;;;;;;;9.02;2.17;;;5.30;92.60;;;;;;5093507;28;20456;-68
2022/02/26 06:53:57;;;;;;;14.50;2.10;;;5.30;92.60;;;;;;5079121;28;20509;-68
2022/02/26 06:56:23;;;;;;;10.32;1.90;;;5.20;92.60;;;;;;5092814;28;20032;-68
2022/02/26 06:58:50;;;;;;;12.38;1.75;;;5.20;92.60;;;;;;5079956;28;20047;-68
2022/02/26 07:01:15;;;;;;;9.95;2.13;;;5.20;92.70;;;;;;5085236;28;20039;-68
2022/02/26 07:03:41;;;;;;;12.50;2.05;;;5.10;92.70;;;;;;5086958;28;20043;-73
2022/02/26 07:06:07;;;;;;;12.50;2.15;;;5.10;92.70;;;;;;5092595;28;20024;-69
2022/02/26 07:08:32;;;;;;;10.32;2.75;;;5.10;92.80;;;;;;5091901;28;20381;-68
2022/02/26 07:10:59;;;;;;;9.48;1.98;;;5.00;92.80;;;;;;5092731;28;20020;-69
2022/02/26 07:13:24;;;;;;;8.32;1.98;;;5.00;92.80;;;;;;5092648;28;20048;-68
2022/02/26 07:15:50;;;;;;;2.42;1.25;;;5.00;92.80;;;;;;5092361;28;20042;-70
2022/02/26 07:18:16;;;;;;;15.05;2.28;;;5.00;92.90;;;;;;5090730;28;20024;-72
2022/02/26 07:20:42;;;;;;;23.27;2.67;;;4.90;92.90;;;;;;5081538;28;20024;-68
2022/02/26 07:23:07;;;;;;;6.55;1.95;;;4.90;93.00;;;;;;5092637;28;20040;-68
2022/02/26 07:25:33;;;;;;;16.13;2.10;;;4.90;93.00;;;;;;5083745;28;20447;-67
2022/02/26 07:27:58;;;;;;;10.13;2.10;;;5.00;93.00;;;;;;5085316;28;20036;-68
2022/02/26 07:30:25;;;;;;;15.88;2.17;;;5.00;93.00;;;;;;5072658;28;20089;-67
2022/02/26 07:32:51;;;;;;;11.25;1.77;;;5.00;93.00;;;;;;5075552;28;20040;-67
2022/02/26 07:35:17;;;;;;;11.18;2.25;;;5.00;93.10;;;;;;5092322;28;20040;-67
2022/02/26 07:37:43;;;;;;;11.40;1.63;;;4.90;93.20;;;;;;5092564;28;20039;-67
2022/02/26 07:40:11;;;;;;;13.77;2.08;;;4.90;93.20;;;;;;5082148;28;20029;-68
2022/02/26 07:42:37;;;;;;;18.52;1.63;;;4.90;93.20;;;;;;5071596;28;20028;-71
2022/02/26 07:45:04;;;;;;;6.97;2.22;;;4.90;93.20;;;;;;5083863;28;20481;-68
2022/02/26 07:47:30;;;;;;;9.88;1.75;;;4.90;93.20;;;;;;5092404;28;20040;-68
2022/02/26 07:49:56;;;;;;;11.40;2.15;;;4.90;93.50;;;;;;5080743;28;20037;-69
2022/02/26 07:52:22;;;;;;;22.35;2.30;;;4.90;93.30;;;;;;5085851;28;20043;-68
2022/02/26 07:54:52;;;;;;;11.18;2.20;;;4.90;93.30;;;;;;5084349;28;20043;-68
2022/02/26 07:57:18;;;;;;;5.78;1.67;;;4.90;93.30;;;;;;5091488;28;20035;-68
2022/02/26 07:59:44;;;;;;;7.40;1.80;;;4.90;93.30;;;;;;5085358;28;20024;-68
2022/02/26 08:02:10;;;;;;;8.55;2.35;;;5.00;93.40;;;;;;5092734;28;20108;-68
2022/02/26 08:04:37;;;;;;;10.82;2.17;;;4.90;93.30;;;;;;5085069;28;20083;-68
2022/02/26 08:07:06;;;;;;;9.02;2.08;;;4.90;93.30;;;;;;5085469;28;20067;-68
2022/02/26 08:09:32;;;;;;;14.27;2.15;;;4.90;93.40;;;;;;5094848;28;20453;-68
2022/02/26 08:11:58;;;;;;;12.82;2.55;;;4.90;93.30;;;;;;5091022;28;20032;-68
2022/02/26 08:14:25;;;;;;;13.45;2.47;;;5.00;93.40;;;;;;5092546;28;20052;-68
2022/02/26 08:16:50;;;;;;;5.88;1.80;;;5.00;93.40;;;;;;5092050;28;20036;-68
2022/02/26 08:19:16;;;;;;;8.25;1.95;;;5.00;93.40;;;;;;5092727;28;20024;-68
2022/02/26 08:21:42;;;;;;;17.15;3.00;;;5.10;93.40;;;;;;5092603;28;20024;-68
2022/02/26 08:24:07;;;;;;;5.35;1.92;;;5.00;93.30;;;;;;5092372;28;20078;-68
2022/02/26 08:26:33;;;;;;;6.30;2.10;;;5.10;93.40;;;;;;5093407;28;20030;-68
2022/02/26 08:29:00;;;;;;;22.80;2.75;;;5.10;93.40;;;;;;5094319;28;20032;-68
2022/02/26 08:31:26;;;;;;;14.38;2.38;;;5.10;93.40;;;;;;5087693;28;20110;-70
2022/02/26 08:33:51;;;;;;;9.90;1.92;;;5.10;93.40;;;;;;5092886;28;20138;-68
2022/02/26 08:36:17;;;;;;;16.30;3.05;;;5.20;93.40;;;;;;5092476;28;20539;-68
2022/02/26 08:38:43;;;;;;;11.75;2.00;;;5.20;93.40;;;;;;5091063;28;20028;-68
2022/02/26 08:41:09;;;;;;;10.77;2.10;;;5.20;93.40;;;;;;5089385;28;20431;-68
2022/02/26 08:43:35;;;;;;;12.52;1.35;;;5.20;93.40;;;;;;5090998;28;20813;-68
2022/02/26 08:46:01;;;;;;;12.45;1.73;;;5.20;93.40;;;;;;5088625;28;20054;-68
2022/02/26 08:48:26;;;;;;;3.03;1.30;;;5.20;93.40;;;;;;5091682;28;20028;-68
2022/02/26 08:50:53;;;;;;;12.82;2.28;;;5.30;93.40;;;;;;5090177;28;20020;-69
2022/02/26 08:53:18;;;;;;;7.97;1.45;;;5.30;93.40;;;;;;5088190;28;20754;-68
2022/02/26 08:55:44;;;;;;;9.63;1.98;;;5.30;93.40;;;;;;5090961;28;20691;-68
2022/02/26 08:58:10;;;;;;;16.90;2.13;;;5.30;93.50;;;;;;5088579;28;20032;-68
2022/02/26 09:00:37;;;;;;;19.10;1.92;;;5.30;93.50;;;;;;5087219;28;20031;-68
2022/02/26 09:03:03;;;;;;;8.98;2.17;;;5.30;93.50;;;;;;5087348;28;20130;-68
2022/02/26 09:05:29;;;;;;;5.60;1.48;;;5.40;93.50;;;;;;5090705;28;20060;-70
2022/02/26 09:07:55;;;;;;;9.80;2.60;;;5.40;93.50;;;;;;5085327;28;20451;-69
2022/02/26 09:10:21;;;;;;;21.98;2.55;;;5.40;93.50;;;;;;5089557;28;20020;-70
2022/02/26 09:12:46;;;;;;;5.78;1.73;;;5.50;93.50;;;;;;5090913;28;20475;-70
2022/02/26 09:15:12;;;;;;;14.00;2.13;;;5.50;93.50;;;;;;5091927;28;20040;-70
2022/02/26 09:17:41;;;;;;;5.22;1.08;;;5.50;93.50;;;;;;5092516;28;20039;-74
2022/02/26 09:20:07;;;;;;;15.27;2.33;;;5.60;93.50;;;;;;5091414;28;20036;-71
2022/02/26 09:22:32;;;;;;;18.38;2.90;;;5.60;93.50;;;;;;5088923;28;20520;-73
2022/02/26 09:24:59;;;;;;;9.45;1.88;;;5.60;93.50;;;;;;5093749;28;20067;-70
2022/02/26 09:27:25;;;;;;;17.63;2.95;;;5.60;93.50;;;;;;5091180;28;20034;-66
2022/02/26 09:29:50;;;;;;;22.58;2.38;;;5.70;93.60;;;;;;5091949;28;20398;-66
2022/02/26 09:32:16;;;;;;;7.05;1.33;;;5.70;93.60;;;;;;5094165;28;20020;-67
2022/02/26 09:34:42;;;;;;;13.23;2.40;;;5.60;93.60;;;;;;5093709;28;20119;-67
2022/02/26 09:37:07;;;;;;;4.70;1.45;;;5.70;93.70;;;;;;5092909;28;20027;-67
2022/02/26 09:39:33;;;;;;;11.77;2.47;;;5.80;93.70;;;;;;5090477;28;20487;-67
2022/02/26 09:41:59;;;;;;;19.63;3.22;;;5.80;93.70;;;;;;5094588;28;20028;-67
2022/02/26 09:44:25;;;;;;;13.32;2.20;;;5.80;93.70;;;;;;5090891;28;20180;-67
2022/02/26 09:46:51;;;;;;;7.22;1.50;;;5.90;93.70;;;;;;5094198;28;20093;-67
2022/02/26 09:49:17;;;;;;;11.70;3.08;;;5.90;93.70;;;;;;5074879;28;20475;-67
2022/02/26 09:51:44;;;;;;;18.80;3.17;;;5.90;93.80;;;;;;5093919;28;20034;-67
2022/02/26 09:54:10;;;;;;;13.40;2.03;;;6.00;93.80;;;;;;5090635;28;20044;-66
2022/02/26 09:56:37;;;;;;;16.58;2.10;;;6.00;93.90;;;;;;5086884;28;20021;-67
2022/02/26 09:59:04;;;;;;;11.15;2.20;;;6.10;93.90;;;;;;5092678;28;20119;-67
2022/02/26 10:01:30;;;;;;;12.77;2.00;;;6.10;93.90;;;;;;5093214;28;20131;-67
2022/02/26 10:04:06;;;;;;;13.82;2.10;;;6.20;93.90;;;;;;5093102;28;20052;-66
2022/02/26 10:06:32;;;;;;;3.60;0.95;;;6.30;93.90;;;;;;5093537;28;20039;-66
2022/02/26 10:09:00;;;;;;;18.08;2.58;;;6.30;93.90;;;;;;5090164;28;20025;-67
2022/02/26 10:11:37;;;;;;;19.85;2.25;;;6.40;93.80;;;;;;5092998;28;20039;-66
2022/02/26 10:14:23;;;;;;;13.25;2.40;;;6.40;93.80;;;;;;5093307;28;20071;-67
2022/02/26 10:16:57;;;;;;;26.25;2.92;;;6.50;93.80;;;;;;5091953;28;20036;-67
2022/02/26 10:19:27;;;;;;;16.35;2.28;;;6.50;93.90;;;;;;5093552;28;20391;-68
2022/02/26 10:21:57;;;;;;;18.70;3.00;;;6.50;93.80;;;;;;5090876;28;20460;-71
2022/02/26 10:24:23;;;;;;;14.02;1.70;;;6.50;93.90;;;;;;5086897;28;20111;-67
2022/02/26 10:26:55;;;;;;;2.42;1.30;;;6.60;94.00;;;;;;5090278;28;20016;-67
2022/02/26 10:29:22;;;;;;;12.77;2.40;;;6.60;93.90;;;;;;5093060;28;20041;-67
2022/02/26 10:31:54;;;;;;;10.90;1.90;;;6.70;94.00;;;;;;5090678;28;20028;-67
2022/02/26 10:34:34;;;;;;;11.20;1.95;;;6.70;93.90;;;;;;5090255;28;20077;-67
2022/02/26 10:37:13;;;;;;;15.90;1.38;;;6.80;93.90;;;;;;5092894;28;20024;-67
2022/02/26 10:39:44;;;;;;;11.90;1.75;;;6.80;93.90;;;;;;5091851;28;20436;-67
2022/02/26 10:42:20;;;;;;;16.95;2.10;;;6.90;93.80;;;;;;5092882;28;20024;-67
2022/02/26 10:45:22;;;;;;;10.10;2.33;;;6.90;93.80;;;;;;5089549;28;20047;-67
2022/02/26 10:47:49;;;;;;;12.60;2.00;;;7.10;93.80;;;;;;5090176;28;20031;-67
2022/02/26 10:50:18;;;;;;;1.10;0.93;;;7.10;93.70;;;;;;5092812;28;20034;-67
2022/02/26 10:52:59;;;;;;;19.00;1.67;;;7.20;93.70;;;;;;5091897;28;20055;-67
2022/02/26 10:55:52;;;;;;;11.57;1.88;;;7.20;93.70;;;;;;5092564;28;20559;-67
2022/02/26 10:58:25;;;;;;;11.00;2.03;;;7.20;93.60;;;;;;5095145;28;20027;-67
2022/02/26 11:00:52;;;;;;;11.70;2.50;;;7.20;93.60;;;;;;5089433;28;20036;-68
2022/02/26 11:03:21;;;;;;;11.00;2.17;;;7.30;93.70;;;;;;5054884;28;20052;-68
2022/02/26 11:05:47;;;;;;;26.48;2.75;;;7.30;93.60;;;;;;5091132;28;20548;-67
2022/02/26 11:08:17;;;;;;;20.48;2.85;;;7.40;93.40;;;;;;5071269;28;20024;-68
2022/02/26 11:10:46;;;;;;;24.98;2.03;;;7.50;93.50;;;;;;5091965;28;20066;-67
2022/02/26 11:13:13;;;;;;;7.13;1.63;;;7.50;93.20;;;;;;5073214;28;20024;-67
2022/02/26 11:15:42;;;;;;;9.75;1.90;;;7.60;93.30;;;;;;5092804;28;20052;-67
2022/02/26 11:18:17;;;;;;;7.07;1.52;;;7.60;93.30;;;;;;5059307;28;20031;-66
2022/02/26 11:20:45;;;;;;;11.40;2.00;;;7.60;93.40;;;;;;5057908;28;20032;-66
2022/02/26 11:23:16;;;;;;;15.73;2.00;;;7.60;93.40;;;;;;5092685;28;20038;-66
2022/02/26 11:25:42;;;;;;;15.68;1.80;;;7.70;93.40;;;;;;5093026;28;20032;-66
2022/02/26 11:28:13;;;;;;;22.40;3.40;;;7.80;93.40;;;;;;5091539;28;20681;-67
2022/02/26 11:30:45;;;;;;;15.30;2.17;;;7.80;93.40;;;;;;5092627;28;20468;-67
2022/02/26 11:33:11;;;;;;;9.43;1.77;;;7.80;93.40;;;;;;5074631;28;20024;-66
2022/02/26 11:35:49;;;;;;;15.38;2.28;;;7.90;93.40;;;;;;5091292;28;20032;-67
2022/02/26 11:38:19;;;;;;;15.60;2.25;;;8.00;93.40;;;;;;5092311;28;20039;-66
2022/02/26 11:41:15;;;;;;;18.73;2.55;;;8.00;93.20;;;;;;5079197;28;20126;-67
2022/02/26 11:43:45;;;;;;;7.80;1.13;;;8.10;92.80;;;;;;5090718;28;20032;-66
2022/02/26 11:46:26;;;;;;;11.77;2.58;;;8.20;92.90;;;;;;5068139;28;20055;-67
2022/02/26 11:48:57;;;;;;;2.00;1.33;;;8.20;93.00;;;;;;5087697;28;20032;-68
2022/02/26 11:51:35;;;;;;;9.27;2.15;;;8.30;93.20;;;;;;5091663;28;20016;-67
2022/02/26 11:54:16;;;;;;;5.57;1.55;;;8.20;93.20;;;;;;5089997;28;20047;-67
2022/02/26 11:57:01;;;;;;;17.10;2.25;;;8.20;93.50;;;;;;5091269;28;20094;-68
2022/02/26 11:59:36;;;;;;;;;;;8.20;93.50;;;;;;5087361;28;20036;-68
2022/02/26 12:02:08;;;;;;;5.68;1.13;;;8.30;93.70;;;;;;5086683;28;19961;-70
2022/02/26 12:04:44;;;;;;;14.65;2.40;;;8.30;93.50;;;;;;5088570;28;21456;-67
2022/02/26 12:07:31;;;;;;;2.22;1.05;;;8.40;93.30;;;;;;5068634;28;20103;-67
2022/02/26 12:10:15;;;;;;;12.73;1.55;;;8.50;93.60;;;;;;5088083;28;20432;-67
2022/02/26 12:12:49;;;;;;;1.00;0.90;;;8.50;93.70;;;;;;5091009;28;20032;-72
2022/02/26 12:15:18;;;;;;;9.38;2.17;;;8.50;93.80;;;;;;5073355;28;20032;-78
2022/02/26 12:18:09;;;;;;;15.48;2.65;;;8.60;93.70;;;;;;5073453;28;20040;-73
2022/02/26 12:20:35;;;;;;;16.42;1.80;;;8.60;93.20;;;;;;5092258;28;20039;-70
2022/02/26 12:23:14;;;;;;;13.73;1.95;;;8.70;93.10;;;;;;5091418;28;20024;-70
2022/02/26 12:25:45;;;;;;;20.52;2.15;;;8.90;92.70;;;;;;5073495;28;20552;-69
2022/02/26 12:28:15;;;;;;;13.50;2.20;;;9.00;92.30;;;;;;5086929;28;20060;-69
2022/02/26 12:30:52;;;;;;;15.80;2.95;;;9.10;91.80;;;;;;5073693;28;20082;-75
2022/02/26 12:33:20;;;;;;;21.40;2.97;;;9.20;91.50;;;;;;5073921;28;20056;-70
2022/02/26 12:36:16;;;;;;;11.75;2.10;;;9.20;91.40;;;;;;5065440;28;20382;-67
2022/02/26 12:39:10;;;;;;;14.85;2.15;;;9.30;91.00;;;;;;5077372;28;20054;-68
2022/02/26 12:41:42;;;;;;;15.13;2.17;;;9.40;91.00;;;;;;5084485;28;20039;-67
2022/02/26 12:44:09;;;;;;;7.82;1.83;;;9.60;90.90;;;;;;5091700;28;20471;-68
2022/02/26 12:46:35;;;;;;;10.80;2.50;;;9.60;90.90;;;;;;5056302;28;20137;-67
2022/02/26 12:49:04;;;;;;;15.90;2.25;;;9.70;90.50;;;;;;5072459;28;20033;-68
2022/02/26 12:51:33;;;;;;;10.88;2.08;;;9.70;90.10;;;;;;5091337;28;20031;-67
2022/02/26 12:54:01;;;;;;;3.90;1.42;;;9.80;90.50;;;;;;5091953;28;20036;-67